sensor_id;sensor_type;location;lat;lon;timestamp;P1;durP1;ratioP1;P2;durP2;ratioP2
34673;SDS011;20879;55.668;37.858;2023-07-20T00:02:39;4.60;;;2.13;;
34673;SDS011;20879;55.668;37.858;2023-07-20T00:05:11;6.55;;;2.33;;
34673;SDS011;20879;55.668;37.858;2023-07-20T00:10:10;4.07;;;2.13;;
34673;SDS011;20879;55.668;37.858;2023-07-20T00:12:39;2.55;;;2.03;;
34673;SDS011;20879;55.668;37.858;2023-07-20T00:15:18;2.53;;;1.60;;
34673;SDS011;20879;55.668;37.858;2023-07-20T00:17:47;3.17;;;1.75;;
34673;SDS011;20879;55.668;37.858;2023-07-20T00:20:20;3.60;;;1.77;;
34673;SDS011;20879;55.668;37.858;2023-07-20T00:22:52;2.92;;;1.60;;
34673;SDS011;20879;55.668;37.858;2023-07-20T00:25:21;4.30;;;1.60;;
34673;SDS011;20879;55.668;37.858;2023-07-20T00:27:57;3.55;;;1.63;;
34673;SDS011;20879;55.668;37.858;2023-07-20T00:30:26;2.75;;;1.30;;
34673;SDS011;20879;55.668;37.858;2023-07-20T00:33:01;3.25;;;1.50;;
34673;SDS011;20879;55.668;37.858;2023-07-20T00:35:32;2.67;;;1.20;;
34673;SDS011;20879;55.668;37.858;2023-07-20T00:38:02;3.80;;;1.20;;
34673;SDS011;20879;55.668;37.858;2023-07-20T00:40:35;3.75;;;1.42;;
34673;SDS011;20879;55.668;37.858;2023-07-20T00:43:05;3.92;;;1.40;;
34673;SDS011;20879;55.668;37.858;2023-07-20T00:45:35;3.42;;;1.42;;
34673;SDS011;20879;55.668;37.858;2023-07-20T00:48:05;1.55;;;1.13;;
34673;SDS011;20879;55.668;37.858;2023-07-20T00:50:38;3.47;;;1.10;;
34673;SDS011;20879;55.668;37.858;2023-07-20T00:53:09;3.28;;;1.08;;
34673;SDS011;20879;55.668;37.858;2023-07-20T00:55:38;3.58;;;1.30;;
34673;SDS011;20879;55.668;37.858;2023-07-20T00:58:08;2.45;;;1.10;;
34673;SDS011;20879;55.668;37.858;2023-07-20T01:00:44;4.03;;;1.20;;
34673;SDS011;20879;55.668;37.858;2023-07-20T01:03:13;2.85;;;1.30;;
34673;SDS011;20879;55.668;37.858;2023-07-20T01:05:47;2.40;;;1.20;;
34673;SDS011;20879;55.668;37.858;2023-07-20T01:08:31;3.33;;;1.85;;
34673;SDS011;20879;55.668;37.858;2023-07-20T01:11:06;1.77;;;1.08;;
34673;SDS011;20879;55.668;37.858;2023-07-20T01:13:42;3.67;;;1.20;;
34673;SDS011;20879;55.668;37.858;2023-07-20T01:16:17;1.20;;;1.10;;
34673;SDS011;20879;55.668;37.858;2023-07-20T01:18:47;1.98;;;1.17;;
34673;SDS011;20879;55.668;37.858;2023-07-20T01:24:26;3.67;;;1.30;;
34673;SDS011;20879;55.668;37.858;2023-07-20T01:27:15;1.30;;;0.90;;
34673;SDS011;20879;55.668;37.858;2023-07-20T01:30:01;6.22;;;1.65;;
34673;SDS011;20879;55.668;37.858;2023-07-20T01:32:59;1.63;;;1.00;;
34673;SDS011;20879;55.668;37.858;2023-07-20T01:35:31;1.30;;;0.90;;
34673;SDS011;20879;55.668;37.858;2023-07-20T01:38:03;4.20;;;1.27;;
34673;SDS011;20879;55.668;37.858;2023-07-20T01:40:33;4.70;;;1.10;;
34673;SDS011;20879;55.668;37.858;2023-07-20T01:43:04;1.90;;;1.00;;
34673;SDS011;20879;55.668;37.858;2023-07-20T01:45:33;2.22;;;1.15;;
34673;SDS011;20879;55.668;37.858;2023-07-20T01:48:04;2.15;;;1.13;;
34673;SDS011;20879;55.668;37.858;2023-07-20T01:50:34;2.15;;;0.98;;
34673;SDS011;20879;55.668;37.858;2023-07-20T01:53:04;3.72;;;0.90;;
34673;SDS011;20879;55.668;37.858;2023-07-20T01:55:33;2.67;;;0.77;;
34673;SDS011;20879;55.668;37.858;2023-07-20T01:58:03;4.55;;;1.10;;
34673;SDS011;20879;55.668;37.858;2023-07-20T02:00:38;3.63;;;1.17;;
34673;SDS011;20879;55.668;37.858;2023-07-20T02:03:09;1.83;;;1.00;;
34673;SDS011;20879;55.668;37.858;2023-07-20T02:05:44;2.65;;;1.15;;
34673;SDS011;20879;55.668;37.858;2023-07-20T02:08:13;1.30;;;0.90;;
34673;SDS011;20879;55.668;37.858;2023-07-20T02:10:45;3.17;;;1.10;;
34673;SDS011;20879;55.668;37.858;2023-07-20T02:13:16;1.88;;;0.82;;
34673;SDS011;20879;55.668;37.858;2023-07-20T02:15:46;3.40;;;1.30;;
34673;SDS011;20879;55.668;37.858;2023-07-20T02:20:55;2.45;;;1.30;;
34673;SDS011;20879;55.668;37.858;2023-07-20T02:23:24;2.10;;;1.00;;
34673;SDS011;20879;55.668;37.858;2023-07-20T02:25:53;4.80;;;1.20;;
34673;SDS011;20879;55.668;37.858;2023-07-20T02:28:23;3.85;;;1.00;;
34673;SDS011;20879;55.668;37.858;2023-07-20T02:30:52;3.08;;;1.10;;
34673;SDS011;20879;55.668;37.858;2023-07-20T02:33:22;2.72;;;1.00;;
34673;SDS011;20879;55.668;37.858;2023-07-20T02:35:55;2.20;;;1.23;;
34673;SDS011;20879;55.668;37.858;2023-07-20T02:38:24;2.90;;;1.20;;
34673;SDS011;20879;55.668;37.858;2023-07-20T02:40:59;1.42;;;0.88;;
34673;SDS011;20879;55.668;37.858;2023-07-20T02:43:29;1.83;;;0.90;;
34673;SDS011;20879;55.668;37.858;2023-07-20T02:45:58;1.50;;;1.10;;
34673;SDS011;20879;55.668;37.858;2023-07-20T02:48:28;2.70;;;1.17;;
34673;SDS011;20879;55.668;37.858;2023-07-20T02:50:59;2.95;;;1.20;;
34673;SDS011;20879;55.668;37.858;2023-07-20T02:53:29;3.47;;;1.20;;
34673;SDS011;20879;55.668;37.858;2023-07-20T02:55:58;1.50;;;0.75;;
34673;SDS011;20879;55.668;37.858;2023-07-20T03:01:05;1.75;;;1.17;;
34673;SDS011;20879;55.668;37.858;2023-07-20T03:03:34;2.30;;;1.20;;
34673;SDS011;20879;55.668;37.858;2023-07-20T03:06:13;2.17;;;1.15;;
34673;SDS011;20879;55.668;37.858;2023-07-20T03:08:49;2.15;;;0.98;;
34673;SDS011;20879;55.668;37.858;2023-07-20T03:11:19;2.35;;;1.00;;
34673;SDS011;20879;55.668;37.858;2023-07-20T03:13:49;3.55;;;1.15;;
34673;SDS011;20879;55.668;37.858;2023-07-20T03:16:19;8.15;;;1.20;;
34673;SDS011;20879;55.668;37.858;2023-07-20T03:18:49;3.00;;;1.10;;
34673;SDS011;20879;55.668;37.858;2023-07-20T03:21:21;2.13;;;1.13;;
34673;SDS011;20879;55.668;37.858;2023-07-20T03:26:31;1.73;;;1.00;;
34673;SDS011;20879;55.668;37.858;2023-07-20T03:29:01;3.88;;;1.10;;
34673;SDS011;20879;55.668;37.858;2023-07-20T03:31:32;3.33;;;1.13;;
34673;SDS011;20879;55.668;37.858;2023-07-20T03:34:07;2.17;;;1.00;;
34673;SDS011;20879;55.668;37.858;2023-07-20T03:36:42;3.80;;;1.50;;
34673;SDS011;20879;55.668;37.858;2023-07-20T03:39:12;3.30;;;0.90;;
34673;SDS011;20879;55.668;37.858;2023-07-20T03:41:42;2.95;;;1.00;;
34673;SDS011;20879;55.668;37.858;2023-07-20T03:44:22;2.40;;;1.20;;
34673;SDS011;20879;55.668;37.858;2023-07-20T03:46:51;1.33;;;0.90;;
34673;SDS011;20879;55.668;37.858;2023-07-20T03:49:21;1.50;;;0.90;;
34673;SDS011;20879;55.668;37.858;2023-07-20T03:51:52;2.08;;;1.00;;
34673;SDS011;20879;55.668;37.858;2023-07-20T03:54:27;1.77;;;0.77;;
34673;SDS011;20879;55.668;37.858;2023-07-20T03:57:02;1.25;;;0.90;;
34673;SDS011;20879;55.668;37.858;2023-07-20T03:59:32;1.48;;;1.00;;
34673;SDS011;20879;55.668;37.858;2023-07-20T04:02:01;2.60;;;1.13;;
34673;SDS011;20879;55.668;37.858;2023-07-20T04:04:32;1.73;;;0.90;;
34673;SDS011;20879;55.668;37.858;2023-07-20T04:07:03;1.75;;;1.00;;
34673;SDS011;20879;55.668;37.858;2023-07-20T04:09:35;2.45;;;1.05;;
34673;SDS011;20879;55.668;37.858;2023-07-20T04:12:05;3.47;;;1.10;;
34673;SDS011;20879;55.668;37.858;2023-07-20T04:14:37;2.03;;;1.10;;
34673;SDS011;20879;55.668;37.858;2023-07-20T04:17:06;4.22;;;1.25;;
34673;SDS011;20879;55.668;37.858;2023-07-20T04:19:39;1.63;;;1.00;;
34673;SDS011;20879;55.668;37.858;2023-07-20T04:22:11;2.85;;;1.00;;
34673;SDS011;20879;55.668;37.858;2023-07-20T04:24:42;2.90;;;1.05;;
34673;SDS011;20879;55.668;37.858;2023-07-20T04:27:11;0.82;;;0.70;;
34673;SDS011;20879;55.668;37.858;2023-07-20T04:29:45;2.33;;;0.93;;
34673;SDS011;20879;55.668;37.858;2023-07-20T04:32:14;1.58;;;0.90;;
34673;SDS011;20879;55.668;37.858;2023-07-20T04:34:44;2.08;;;0.90;;
34673;SDS011;20879;55.668;37.858;2023-07-20T04:37:15;3.22;;;0.82;;
34673;SDS011;20879;55.668;37.858;2023-07-20T04:39:46;2.40;;;1.00;;
34673;SDS011;20879;55.668;37.858;2023-07-20T04:42:16;1.35;;;0.93;;
34673;SDS011;20879;55.668;37.858;2023-07-20T04:44:58;6.50;;;1.20;;
34673;SDS011;20879;55.668;37.858;2023-07-20T04:47:31;4.15;;;0.90;;
34673;SDS011;20879;55.668;37.858;2023-07-20T04:50:07;2.00;;;0.98;;
34673;SDS011;20879;55.668;37.858;2023-07-20T04:52:38;3.10;;;0.98;;
34673;SDS011;20879;55.668;37.858;2023-07-20T04:55:14;2.08;;;1.00;;
34673;SDS011;20879;55.668;37.858;2023-07-20T04:57:45;4.53;;;1.67;;
34673;SDS011;20879;55.668;37.858;2023-07-20T05:00:15;4.20;;;1.23;;
34673;SDS011;20879;55.668;37.858;2023-07-20T05:02:45;1.85;;;0.70;;
34673;SDS011;20879;55.668;37.858;2023-07-20T05:05:15;2.67;;;0.93;;
34673;SDS011;20879;55.668;37.858;2023-07-20T05:07:47;3.08;;;0.93;;
34673;SDS011;20879;55.668;37.858;2023-07-20T05:10:17;2.60;;;0.90;;
34673;SDS011;20879;55.668;37.858;2023-07-20T05:12:53;3.25;;;0.93;;
34673;SDS011;20879;55.668;37.858;2023-07-20T05:15:22;2.08;;;0.90;;
34673;SDS011;20879;55.668;37.858;2023-07-20T05:17:55;2.73;;;0.80;;
34673;SDS011;20879;55.668;37.858;2023-07-20T05:22:56;4.57;;;1.13;;
34673;SDS011;20879;55.668;37.858;2023-07-20T05:25:30;3.38;;;1.10;;
34673;SDS011;20879;55.668;37.858;2023-07-20T05:28:04;2.80;;;0.90;;
34673;SDS011;20879;55.668;37.858;2023-07-20T05:30:34;5.70;;;1.02;;
34673;SDS011;20879;55.668;37.858;2023-07-20T05:33:04;2.35;;;1.10;;
34673;SDS011;20879;55.668;37.858;2023-07-20T05:35:38;3.75;;;0.82;;
34673;SDS011;20879;55.668;37.858;2023-07-20T05:38:15;2.92;;;1.00;;
34673;SDS011;20879;55.668;37.858;2023-07-20T05:40:45;1.70;;;0.57;;
34673;SDS011;20879;55.668;37.858;2023-07-20T05:43:20;4.03;;;0.95;;
34673;SDS011;20879;55.668;37.858;2023-07-20T05:45:49;2.67;;;0.82;;
34673;SDS011;20879;55.668;37.858;2023-07-20T05:48:24;2.00;;;0.90;;
34673;SDS011;20879;55.668;37.858;2023-07-20T05:50:53;3.70;;;0.75;;
34673;SDS011;20879;55.668;37.858;2023-07-20T05:53:25;3.08;;;1.10;;
34673;SDS011;20879;55.668;37.858;2023-07-20T05:55:54;2.45;;;0.88;;
34673;SDS011;20879;55.668;37.858;2023-07-20T05:58:24;2.05;;;0.90;;
34673;SDS011;20879;55.668;37.858;2023-07-20T06:00:53;3.72;;;0.80;;
34673;SDS011;20879;55.668;37.858;2023-07-20T06:03:23;2.50;;;0.90;;
34673;SDS011;20879;55.668;37.858;2023-07-20T06:05:57;2.92;;;1.10;;
34673;SDS011;20879;55.668;37.858;2023-07-20T06:08:30;2.65;;;1.10;;
34673;SDS011;20879;55.668;37.858;2023-07-20T06:11:00;2.28;;;0.90;;
34673;SDS011;20879;55.668;37.858;2023-07-20T06:13:29;3.97;;;1.25;;
34673;SDS011;20879;55.668;37.858;2023-07-20T06:15:59;5.32;;;1.02;;
34673;SDS011;20879;55.668;37.858;2023-07-20T06:18:30;2.55;;;1.02;;
34673;SDS011;20879;55.668;37.858;2023-07-20T06:20:59;4.40;;;0.85;;
34673;SDS011;20879;55.668;37.858;2023-07-20T06:23:31;1.20;;;0.77;;
34673;SDS011;20879;55.668;37.858;2023-07-20T06:26:00;5.40;;;0.80;;
34673;SDS011;20879;55.668;37.858;2023-07-20T06:28:30;1.17;;;0.90;;
34673;SDS011;20879;55.668;37.858;2023-07-20T06:31:00;4.43;;;1.00;;
34673;SDS011;20879;55.668;37.858;2023-07-20T06:33:30;2.15;;;1.00;;
34673;SDS011;20879;55.668;37.858;2023-07-20T06:36:01;3.60;;;0.90;;
34673;SDS011;20879;55.668;37.858;2023-07-20T06:38:38;3.28;;;1.05;;
34673;SDS011;20879;55.668;37.858;2023-07-20T06:41:28;1.85;;;0.90;;
34673;SDS011;20879;55.668;37.858;2023-07-20T06:44:01;3.10;;;0.70;;
34673;SDS011;20879;55.668;37.858;2023-07-20T06:46:31;2.53;;;0.80;;
34673;SDS011;20879;55.668;37.858;2023-07-20T06:49:01;3.58;;;1.27;;
34673;SDS011;20879;55.668;37.858;2023-07-20T06:51:33;1.67;;;1.00;;
34673;SDS011;20879;55.668;37.858;2023-07-20T06:54:05;1.10;;;0.80;;
34673;SDS011;20879;55.668;37.858;2023-07-20T06:56:49;3.17;;;0.80;;
34673;SDS011;20879;55.668;37.858;2023-07-20T06:59:28;0.98;;;0.75;;
34673;SDS011;20879;55.668;37.858;2023-07-20T07:01:58;2.70;;;0.80;;
34673;SDS011;20879;55.668;37.858;2023-07-20T07:04:27;1.35;;;1.00;;
34673;SDS011;20879;55.668;37.858;2023-07-20T07:06:57;3.00;;;1.13;;
34673;SDS011;20879;55.668;37.858;2023-07-20T07:09:28;2.05;;;0.90;;
34673;SDS011;20879;55.668;37.858;2023-07-20T07:14:27;2.63;;;0.70;;
34673;SDS011;20879;55.668;37.858;2023-07-20T07:17:04;1.20;;;0.70;;
34673;SDS011;20879;55.668;37.858;2023-07-20T07:19:44;2.47;;;0.90;;
34673;SDS011;20879;55.668;37.858;2023-07-20T07:22:16;3.42;;;1.00;;
34673;SDS011;20879;55.668;37.858;2023-07-20T07:24:47;3.08;;;0.70;;
34673;SDS011;20879;55.668;37.858;2023-07-20T07:29:46;4.00;;;0.75;;
34673;SDS011;20879;55.668;37.858;2023-07-20T07:32:15;1.80;;;0.90;;
34673;SDS011;20879;55.668;37.858;2023-07-20T07:34:45;3.65;;;0.80;;
34673;SDS011;20879;55.668;37.858;2023-07-20T07:37:15;3.75;;;0.80;;
34673;SDS011;20879;55.668;37.858;2023-07-20T07:39:48;2.97;;;0.90;;
34673;SDS011;20879;55.668;37.858;2023-07-20T07:42:23;0.70;;;0.70;;
34673;SDS011;20879;55.668;37.858;2023-07-20T07:44:52;2.50;;;0.85;;
34673;SDS011;20879;55.668;37.858;2023-07-20T07:50:03;2.55;;;1.00;;
34673;SDS011;20879;55.668;37.858;2023-07-20T07:52:38;4.10;;;1.10;;
34673;SDS011;20879;55.668;37.858;2023-07-20T07:55:10;2.70;;;0.77;;
34673;SDS011;20879;55.668;37.858;2023-07-20T07:57:44;3.33;;;1.05;;
34673;SDS011;20879;55.668;37.858;2023-07-20T08:00:15;1.80;;;0.70;;
34673;SDS011;20879;55.668;37.858;2023-07-20T08:02:45;5.05;;;1.00;;
34673;SDS011;20879;55.668;37.858;2023-07-20T08:05:16;3.47;;;1.20;;
34673;SDS011;20879;55.668;37.858;2023-07-20T08:10:33;1.20;;;0.65;;
34673;SDS011;20879;55.668;37.858;2023-07-20T08:13:02;2.58;;;0.90;;
34673;SDS011;20879;55.668;37.858;2023-07-20T08:15:38;3.33;;;1.25;;
34673;SDS011;20879;55.668;37.858;2023-07-20T08:18:07;2.85;;;0.90;;
34673;SDS011;20879;55.668;37.858;2023-07-20T08:20:37;1.60;;;0.75;;
34673;SDS011;20879;55.668;37.858;2023-07-20T08:23:07;2.97;;;1.00;;
34673;SDS011;20879;55.668;37.858;2023-07-20T08:25:38;4.55;;;1.00;;
34673;SDS011;20879;55.668;37.858;2023-07-20T08:28:10;2.78;;;0.82;;
34673;SDS011;20879;55.668;37.858;2023-07-20T08:30:40;2.97;;;1.00;;
34673;SDS011;20879;55.668;37.858;2023-07-20T08:33:12;2.55;;;0.88;;
34673;SDS011;20879;55.668;37.858;2023-07-20T08:35:47;3.97;;;0.85;;
34673;SDS011;20879;55.668;37.858;2023-07-20T08:38:16;2.40;;;1.00;;
34673;SDS011;20879;55.668;37.858;2023-07-20T08:40:48;4.82;;;1.00;;
34673;SDS011;20879;55.668;37.858;2023-07-20T08:45:46;3.08;;;0.93;;
34673;SDS011;20879;55.668;37.858;2023-07-20T08:48:24;3.17;;;1.30;;
34673;SDS011;20879;55.668;37.858;2023-07-20T08:50:55;3.95;;;0.90;;
34673;SDS011;20879;55.668;37.858;2023-07-20T08:53:31;2.33;;;0.90;;
34673;SDS011;20879;55.668;37.858;2023-07-20T08:56:04;4.45;;;1.20;;
34673;SDS011;20879;55.668;37.858;2023-07-20T08:58:37;3.47;;;1.15;;
34673;SDS011;20879;55.668;37.858;2023-07-20T09:01:08;3.90;;;0.90;;
34673;SDS011;20879;55.668;37.858;2023-07-20T09:03:39;3.95;;;1.13;;
34673;SDS011;20879;55.668;37.858;2023-07-20T09:06:10;2.05;;;0.70;;
34673;SDS011;20879;55.668;37.858;2023-07-20T09:08:51;3.15;;;0.85;;
34673;SDS011;20879;55.668;37.858;2023-07-20T09:11:22;1.60;;;1.00;;
34673;SDS011;20879;55.668;37.858;2023-07-20T09:14:03;1.83;;;1.20;;
34673;SDS011;20879;55.668;37.858;2023-07-20T09:16:40;4.35;;;0.90;;
34673;SDS011;20879;55.668;37.858;2023-07-20T09:19:17;2.70;;;1.20;;
34673;SDS011;20879;55.668;37.858;2023-07-20T09:21:46;2.03;;;1.00;;
34673;SDS011;20879;55.668;37.858;2023-07-20T09:24:17;2.40;;;1.30;;
34673;SDS011;20879;55.668;37.858;2023-07-20T09:26:51;3.50;;;1.30;;
34673;SDS011;20879;55.668;37.858;2023-07-20T09:29:21;2.50;;;1.10;;
34673;SDS011;20879;55.668;37.858;2023-07-20T09:32:00;2.35;;;1.20;;
34673;SDS011;20879;55.668;37.858;2023-07-20T09:34:30;2.10;;;1.05;;
34673;SDS011;20879;55.668;37.858;2023-07-20T09:37:13;3.78;;;1.20;;
34673;SDS011;20879;55.668;37.858;2023-07-20T09:39:43;4.22;;;1.20;;
34673;SDS011;20879;55.668;37.858;2023-07-20T09:42:17;3.72;;;1.10;;
34673;SDS011;20879;55.668;37.858;2023-07-20T09:44:51;4.97;;;1.05;;
34673;SDS011;20879;55.668;37.858;2023-07-20T09:47:21;1.65;;;1.10;;
34673;SDS011;20879;55.668;37.858;2023-07-20T09:49:57;4.55;;;1.25;;
34673;SDS011;20879;55.668;37.858;2023-07-20T09:52:31;1.95;;;1.10;;
34673;SDS011;20879;55.668;37.858;2023-07-20T09:55:04;2.58;;;1.20;;
34673;SDS011;20879;55.668;37.858;2023-07-20T09:57:37;4.20;;;1.35;;
34673;SDS011;20879;55.668;37.858;2023-07-20T10:00:07;2.85;;;1.10;;
34673;SDS011;20879;55.668;37.858;2023-07-20T10:02:42;3.45;;;1.20;;
34673;SDS011;20879;55.668;37.858;2023-07-20T10:05:14;5.85;;;1.30;;
34673;SDS011;20879;55.668;37.858;2023-07-20T10:07:45;5.55;;;1.30;;
34673;SDS011;20879;55.668;37.858;2023-07-20T10:10:18;2.58;;;1.27;;
34673;SDS011;20879;55.668;37.858;2023-07-20T10:12:49;2.25;;;1.27;;
34673;SDS011;20879;55.668;37.858;2023-07-20T10:15:26;4.35;;;1.10;;
34673;SDS011;20879;55.668;37.858;2023-07-20T10:18:01;3.25;;;1.13;;
34673;SDS011;20879;55.668;37.858;2023-07-20T10:20:43;3.17;;;1.88;;
34673;SDS011;20879;55.668;37.858;2023-07-20T10:23:18;3.63;;;1.17;;
34673;SDS011;20879;55.668;37.858;2023-07-20T10:25:48;2.45;;;1.55;;
34673;SDS011;20879;55.668;37.858;2023-07-20T10:28:20;1.77;;;1.00;;
34673;SDS011;20879;55.668;37.858;2023-07-20T10:30:53;1.45;;;1.00;;
34673;SDS011;20879;55.668;37.858;2023-07-20T10:33:23;2.35;;;1.27;;
34673;SDS011;20879;55.668;37.858;2023-07-20T10:36:00;7.82;;;1.70;;
34673;SDS011;20879;55.668;37.858;2023-07-20T10:38:38;5.15;;;1.48;;
34673;SDS011;20879;55.668;37.858;2023-07-20T10:41:18;5.28;;;1.65;;
34673;SDS011;20879;55.668;37.858;2023-07-20T10:43:50;3.85;;;1.45;;
34673;SDS011;20879;55.668;37.858;2023-07-20T10:49:02;1.80;;;1.00;;
34673;SDS011;20879;55.668;37.858;2023-07-20T10:51:41;2.13;;;1.20;;
34673;SDS011;20879;55.668;37.858;2023-07-20T10:54:33;5.47;;;1.20;;
34673;SDS011;20879;55.668;37.858;2023-07-20T10:57:30;4.35;;;1.45;;
34673;SDS011;20879;55.668;37.858;2023-07-20T11:00:11;2.67;;;1.27;;
34673;SDS011;20879;55.668;37.858;2023-07-20T11:02:45;3.30;;;2.08;;
34673;SDS011;20879;55.668;37.858;2023-07-20T11:05:33;2.25;;;1.48;;
34673;SDS011;20879;55.668;37.858;2023-07-20T11:08:10;3.50;;;1.60;;
34673;SDS011;20879;55.668;37.858;2023-07-20T11:10:41;3.45;;;1.65;;
34673;SDS011;20879;55.668;37.858;2023-07-20T11:13:17;5.72;;;2.00;;
34673;SDS011;20879;55.668;37.858;2023-07-20T11:16:05;5.15;;;1.77;;
34673;SDS011;20879;55.668;37.858;2023-07-20T11:18:34;3.60;;;1.70;;
34673;SDS011;20879;55.668;37.858;2023-07-20T11:21:08;3.95;;;1.92;;
34673;SDS011;20879;55.668;37.858;2023-07-20T11:23:39;5.07;;;1.98;;
34673;SDS011;20879;55.668;37.858;2023-07-20T11:26:09;2.92;;;1.75;;
34673;SDS011;20879;55.668;37.858;2023-07-20T11:28:38;4.18;;;2.15;;
34673;SDS011;20879;55.668;37.858;2023-07-20T11:31:10;4.65;;;2.10;;
34673;SDS011;20879;55.668;37.858;2023-07-20T11:33:43;2.88;;;1.70;;
34673;SDS011;20879;55.668;37.858;2023-07-20T11:36:23;6.03;;;1.90;;
34673;SDS011;20879;55.668;37.858;2023-07-20T11:39:01;3.50;;;1.40;;
34673;SDS011;20879;55.668;37.858;2023-07-20T11:41:31;2.70;;;1.42;;
34673;SDS011;20879;55.668;37.858;2023-07-20T11:44:01;1.63;;;1.30;;
34673;SDS011;20879;55.668;37.858;2023-07-20T11:46:33;4.32;;;1.40;;
34673;SDS011;20879;55.668;37.858;2023-07-20T11:49:03;3.47;;;1.45;;
34673;SDS011;20879;55.668;37.858;2023-07-20T11:51:39;2.75;;;1.15;;
34673;SDS011;20879;55.668;37.858;2023-07-20T11:54:09;3.03;;;1.00;;
34673;SDS011;20879;55.668;37.858;2023-07-20T11:56:41;2.60;;;1.30;;
34673;SDS011;20879;55.668;37.858;2023-07-20T11:59:18;2.65;;;1.20;;
34673;SDS011;20879;55.668;37.858;2023-07-20T12:01:50;4.13;;;1.50;;
34673;SDS011;20879;55.668;37.858;2023-07-20T12:06:53;3.20;;;1.40;;
34673;SDS011;20879;55.668;37.858;2023-07-20T12:12:18;3.80;;;1.52;;
34673;SDS011;20879;55.668;37.858;2023-07-20T12:14:48;3.55;;;1.63;;
34673;SDS011;20879;55.668;37.858;2023-07-20T12:17:19;3.83;;;1.45;;
34673;SDS011;20879;55.668;37.858;2023-07-20T12:19:49;3.28;;;1.90;;
34673;SDS011;20879;55.668;37.858;2023-07-20T12:22:26;2.63;;;1.65;;
34673;SDS011;20879;55.668;37.858;2023-07-20T12:24:55;4.20;;;1.50;;
34673;SDS011;20879;55.668;37.858;2023-07-20T12:27:27;5.05;;;1.80;;
34673;SDS011;20879;55.668;37.858;2023-07-20T12:30:01;3.95;;;1.55;;
34673;SDS011;20879;55.668;37.858;2023-07-20T12:32:33;5.13;;;2.00;;
34673;SDS011;20879;55.668;37.858;2023-07-20T12:37:32;3.85;;;2.25;;
34673;SDS011;20879;55.668;37.858;2023-07-20T12:40:07;4.35;;;2.17;;
34673;SDS011;20879;55.668;37.858;2023-07-20T12:50:09;5.38;;;2.28;;
34673;SDS011;20879;55.668;37.858;2023-07-20T12:52:39;4.47;;;1.70;;
34673;SDS011;20879;55.668;37.858;2023-07-20T12:55:09;4.68;;;1.90;;
34673;SDS011;20879;55.668;37.858;2023-07-20T12:57:40;4.47;;;1.85;;
34673;SDS011;20879;55.668;37.858;2023-07-20T13:00:10;3.92;;;1.75;;
34673;SDS011;20879;55.668;37.858;2023-07-20T13:02:45;4.32;;;1.35;;
34673;SDS011;20879;55.668;37.858;2023-07-20T13:05:37;5.10;;;2.42;;
34673;SDS011;20879;55.668;37.858;2023-07-20T13:08:09;9.40;;;1.70;;
34673;SDS011;20879;55.668;37.858;2023-07-20T13:10:47;2.78;;;1.60;;
34673;SDS011;20879;55.668;37.858;2023-07-20T13:13:33;3.95;;;1.50;;
34673;SDS011;20879;55.668;37.858;2023-07-20T13:16:03;3.17;;;1.25;;
34673;SDS011;20879;55.668;37.858;2023-07-20T13:18:32;4.40;;;1.13;;
34673;SDS011;20879;55.668;37.858;2023-07-20T13:21:09;2.75;;;1.40;;
34673;SDS011;20879;55.668;37.858;2023-07-20T13:23:39;1.85;;;1.10;;
34673;SDS011;20879;55.668;37.858;2023-07-20T13:26:08;3.05;;;1.17;;
34673;SDS011;20879;55.668;37.858;2023-07-20T13:28:39;4.05;;;1.60;;
34673;SDS011;20879;55.668;37.858;2023-07-20T13:31:14;4.50;;;1.70;;
34673;SDS011;20879;55.668;37.858;2023-07-20T13:33:44;3.50;;;1.60;;
34673;SDS011;20879;55.668;37.858;2023-07-20T13:36:30;3.97;;;1.35;;
34673;SDS011;20879;55.668;37.858;2023-07-20T13:39:07;2.60;;;1.52;;
34673;SDS011;20879;55.668;37.858;2023-07-20T13:41:36;3.03;;;1.48;;
34673;SDS011;20879;55.668;37.858;2023-07-20T13:44:06;4.38;;;1.17;;
34673;SDS011;20879;55.668;37.858;2023-07-20T13:46:35;3.17;;;1.40;;
34673;SDS011;20879;55.668;37.858;2023-07-20T13:49:15;3.20;;;1.58;;
34673;SDS011;20879;55.668;37.858;2023-07-20T13:51:52;3.65;;;1.40;;
34673;SDS011;20879;55.668;37.858;2023-07-20T13:54:25;3.17;;;1.63;;
34673;SDS011;20879;55.668;37.858;2023-07-20T13:56:55;6.75;;;1.90;;
34673;SDS011;20879;55.668;37.858;2023-07-20T13:59:24;3.72;;;1.52;;
34673;SDS011;20879;55.668;37.858;2023-07-20T14:01:54;3.45;;;1.40;;
34673;SDS011;20879;55.668;37.858;2023-07-20T14:04:26;4.03;;;1.45;;
34673;SDS011;20879;55.668;37.858;2023-07-20T14:06:58;2.95;;;1.60;;
34673;SDS011;20879;55.668;37.858;2023-07-20T14:09:27;5.82;;;2.03;;
34673;SDS011;20879;55.668;37.858;2023-07-20T14:12:02;4.30;;;1.67;;
34673;SDS011;20879;55.668;37.858;2023-07-20T14:14:34;4.97;;;1.60;;
34673;SDS011;20879;55.668;37.858;2023-07-20T14:17:09;4.25;;;1.90;;
34673;SDS011;20879;55.668;37.858;2023-07-20T14:19:39;4.57;;;1.65;;
34673;SDS011;20879;55.668;37.858;2023-07-20T14:22:11;2.27;;;1.57;;
34673;SDS011;20879;55.668;37.858;2023-07-20T14:24:41;2.15;;;1.35;;
34673;SDS011;20879;55.668;37.858;2023-07-20T14:27:10;6.30;;;1.70;;
34673;SDS011;20879;55.668;37.858;2023-07-20T14:29:39;1.92;;;1.00;;
34673;SDS011;20879;55.668;37.858;2023-07-20T14:32:09;2.47;;;1.25;;
34673;SDS011;20879;55.668;37.858;2023-07-20T14:34:38;3.40;;;1.30;;
34673;SDS011;20879;55.668;37.858;2023-07-20T14:37:08;3.30;;;1.40;;
34673;SDS011;20879;55.668;37.858;2023-07-20T14:39:42;5.38;;;1.25;;
34673;SDS011;20879;55.668;37.858;2023-07-20T14:44:46;2.55;;;1.33;;
34673;SDS011;20879;55.668;37.858;2023-07-20T14:47:15;2.53;;;1.52;;
34673;SDS011;20879;55.668;37.858;2023-07-20T14:49:50;2.35;;;1.27;;
34673;SDS011;20879;55.668;37.858;2023-07-20T14:52:20;2.55;;;1.45;;
34673;SDS011;20879;55.668;37.858;2023-07-20T14:54:56;3.25;;;1.42;;
34673;SDS011;20879;55.668;37.858;2023-07-20T14:57:26;1.55;;;1.17;;
34673;SDS011;20879;55.668;37.858;2023-07-20T14:59:56;3.53;;;1.50;;
34673;SDS011;20879;55.668;37.858;2023-07-20T15:02:25;4.80;;;1.50;;
34673;SDS011;20879;55.668;37.858;2023-07-20T15:05:00;2.60;;;1.50;;
34673;SDS011;20879;55.668;37.858;2023-07-20T15:07:29;2.22;;;1.20;;
34673;SDS011;20879;55.668;37.858;2023-07-20T15:10:01;2.53;;;1.05;;
34673;SDS011;20879;55.668;37.858;2023-07-20T15:12:31;3.88;;;1.60;;
34673;SDS011;20879;55.668;37.858;2023-07-20T15:15:04;4.43;;;1.27;;
34673;SDS011;20879;55.668;37.858;2023-07-20T15:17:35;2.70;;;1.27;;
34673;SDS011;20879;55.668;37.858;2023-07-20T15:20:12;2.78;;;1.35;;
34673;SDS011;20879;55.668;37.858;2023-07-20T15:22:43;3.70;;;1.37;;
34673;SDS011;20879;55.668;37.858;2023-07-20T15:25:17;1.85;;;1.33;;
34673;SDS011;20879;55.668;37.858;2023-07-20T15:27:53;5.15;;;1.52;;
34673;SDS011;20879;55.668;37.858;2023-07-20T15:30:23;3.42;;;1.27;;
34673;SDS011;20879;55.668;37.858;2023-07-20T15:35:34;3.30;;;1.48;;
34673;SDS011;20879;55.668;37.858;2023-07-20T15:38:04;6.18;;;1.90;;
34673;SDS011;20879;55.668;37.858;2023-07-20T15:40:38;3.85;;;2.30;;
34673;SDS011;20879;55.668;37.858;2023-07-20T15:43:20;4.53;;;1.50;;
34673;SDS011;20879;55.668;37.858;2023-07-20T15:45:50;3.13;;;1.77;;
34673;SDS011;20879;55.668;37.858;2023-07-20T15:48:32;5.72;;;2.30;;
34673;SDS011;20879;55.668;37.858;2023-07-20T15:51:09;7.57;;;2.00;;
34673;SDS011;20879;55.668;37.858;2023-07-20T15:53:38;3.95;;;1.70;;
34673;SDS011;20879;55.668;37.858;2023-07-20T15:56:10;3.28;;;1.80;;
34673;SDS011;20879;55.668;37.858;2023-07-20T15:58:42;4.13;;;1.42;;